Time;durP1;ratioP1;P1;durP2;ratioP2;P2;SDS_P1;SDS_P2;PMS_P1;PMS_P2;Temp;Humidity;BMP_temperature;BMP_pressure;BME280_temperature;BME280_humidity;BME280_pressure;Samples;Min_cycle;Max_cycle;Signal;HPM_P1;HPM_P2
2022/10/02 00:02:09;;;;;;;3.07;0.70;;;22.40;99.90;;;;;;5075604;28;20299;-71
2022/10/02 00:04:43;;;;;;;2.50;0.90;;;23.00;99.90;;;;;;5093913;28;20219;-72
2022/10/02 00:07:12;;;;;;;3.90;0.87;;;22.40;99.90;;;;;;5092021;28;20263;-70
2022/10/02 00:09:52;;;;;;;2.33;0.60;;;21.10;99.90;;;;;;5073137;28;20172;-71
2022/10/02 00:12:24;;;;;;;3.50;0.60;;;20.80;99.90;;;;;;5085265;28;20179;-69
2022/10/02 00:14:55;;;;;;;3.80;1.00;;;20.30;99.90;;;;;;5096512;28;20259;-72
2022/10/02 00:17:31;;;;;;;4.13;0.80;;;19.80;99.90;;;;;;5092459;28;20192;-71
2022/10/02 00:19:59;;;;;;;2.77;0.70;;;19.30;99.90;;;;;;5073962;28;20281;-69
2022/10/02 00:22:40;;;;;;;1.03;0.60;;;19.00;99.90;;;;;;5090446;28;20175;-71
2022/10/02 00:25:19;;;;;;;4.73;0.70;;;18.60;99.90;;;;;;5090137;28;20191;-72
2022/10/02 00:28:01;;;;;;;1.47;0.70;;;19.20;99.90;;;;;;5089632;28;20187;-70
2022/10/02 00:30:39;;;;;;;1.70;0.63;;;21.00;99.90;;;;;;5090596;28;20191;-69
2022/10/02 00:33:36;;;;;;;2.20;0.60;;;22.10;99.90;;;;;;5090258;28;20254;-71
2022/10/02 00:36:47;;;;;;;2.47;0.80;;;22.60;99.90;;;;;;5061585;28;20211;-71
2022/10/02 00:39:38;;;;;;;2.13;0.60;;;21.70;99.90;;;;;;5083930;28;20190;-69
2022/10/02 00:42:23;;;;;;;4.53;1.07;;;21.10;99.90;;;;;;5061156;28;20958;-69
2022/10/02 00:45:17;;;;;;;1.03;0.60;;;20.90;99.90;;;;;;5072926;28;20679;-70
2022/10/02 00:47:45;;;;;;;3.50;1.50;;;21.70;99.90;;;;;;5060663;28;20182;-70
2022/10/02 00:50:37;;;;;;;2.37;1.17;;;21.80;99.90;;;;;;5075997;28;20184;-69
2022/10/02 00:53:26;;;;;;;1.93;0.60;;;21.30;99.90;;;;;;5082296;28;20181;-70
2022/10/02 00:56:03;;;;;;;2.23;0.60;;;20.90;99.90;;;;;;5087955;28;20180;-69
2022/10/02 00:58:52;;;;;;;3.03;0.83;;;20.90;99.90;;;;;;5078600;28;20298;-72
2022/10/02 01:01:40;;;;;;;2.70;0.70;;;21.00;99.90;;;;;;5061198;28;20218;-69
2022/10/02 01:04:35;;;;;;;0.83;0.50;;;22.20;99.90;;;;;;5078804;28;20176;-69
2022/10/02 01:07:05;;;;;;;1.53;0.60;;;23.50;99.90;;;;;;5072388;28;20191;-69
2022/10/02 01:09:34;;;;;;;1.47;0.50;;;24.20;98.10;;;;;;5062100;28;20500;-69
2022/10/02 01:12:02;;;;;;;2.00;0.63;;;24.70;94.00;;;;;;5091730;28;20187;-70
2022/10/02 01:14:38;;;;;;;2.00;0.93;;;25.10;84.10;;;;;;5087904;28;20623;-69
2022/10/02 01:17:27;;;;;;;0.67;0.40;;;24.80;86.40;;;;;;5092410;28;20179;-70
2022/10/02 01:19:56;;;;;;;4.17;0.67;;;24.40;96.30;;;;;;5072395;28;20223;-70
2022/10/02 01:22:34;;;;;;;2.27;0.67;;;24.30;94.60;;;;;;5080377;28;20175;-69
2022/10/02 01:25:04;;;;;;;1.83;0.60;;;23.80;94.50;;;;;;5084389;28;20183;-70
2022/10/02 01:27:34;;;;;;;2.00;0.70;;;24.10;92.20;;;;;;5092396;28;20266;-72
2022/10/02 01:30:06;;;;;;;1.93;0.50;;;22.90;94.20;;;;;;5092154;28;20175;-71
2022/10/02 01:32:39;;;;;;;1.50;0.63;;;22.10;99.90;;;;;;5084240;28;20186;-71
2022/10/02 01:35:08;;;;;;;1.70;0.50;;;22.50;99.90;;;;;;5072897;28;20210;-71
2022/10/02 01:37:40;;;;;;;2.47;0.70;;;23.40;99.90;;;;;;5076271;28;20234;-70
2022/10/02 01:40:21;;;;;;;1.13;0.63;;;23.20;99.90;;;;;;5085294;28;20210;-69
2022/10/02 01:42:50;;;;;;;2.80;0.83;;;23.70;99.90;;;;;;5088210;28;20179;-70
2022/10/02 01:45:21;;;;;;;1.67;0.43;;;24.30;91.00;;;;;;5077558;28;20191;-70
2022/10/02 01:48:13;;;;;;;3.67;1.20;;;23.60;93.30;;;;;;5090875;28;20187;-72
2022/10/02 01:51:23;;;;;;;2.50;0.70;;;24.20;99.90;;;;;;5088276;28;20179;-70
2022/10/02 01:54:12;;;;;;;2.27;0.93;;;23.60;96.80;;;;;;5028607;28;20572;-70
2022/10/02 01:56:54;;;;;;;0.97;0.50;;;22.80;95.20;;;;;;5091377;28;20236;-71
2022/10/02 01:59:44;;;;;;;1.77;0.60;;;22.10;98.20;;;;;;5090396;28;20240;-71
2022/10/02 02:02:33;;;;;;;3.43;0.60;;;22.20;97.40;;;;;;5092003;28;20193;-70
2022/10/02 02:05:09;;;;;;;1.10;0.50;;;23.20;94.70;;;;;;5069098;28;20266;-70
2022/10/02 02:07:54;;;;;;;2.40;0.83;;;23.80;85.40;;;;;;5072384;28;20208;-71
2022/10/02 02:10:50;;;;;;;0.80;0.40;;;23.90;80.10;;;;;;5091006;28;20622;-70
2022/10/02 02:13:26;;;;;;;2.97;0.60;;;22.30;89.10;;;;;;5084055;28;20182;-71
2022/10/02 02:16:03;;;;;;;3.63;0.60;;;21.80;94.90;;;;;;5077282;28;20270;-71
2022/10/02 02:18:35;;;;;;;1.90;0.50;;;21.50;99.90;;;;;;5072747;28;20183;-70
2022/10/02 02:21:10;;;;;;;2.20;0.60;;;21.40;99.90;;;;;;5085605;28;20577;-71
2022/10/02 02:23:41;;;;;;;1.20;0.40;;;21.50;99.90;;;;;;5085087;28;20179;-71
2022/10/02 02:26:14;;;;;;;1.60;0.50;;;21.20;99.90;;;;;;5077481;28;20205;-70
2022/10/02 02:28:51;;;;;;;0.97;0.50;;;20.80;99.60;;;;;;5090072;28;20189;-69
2022/10/02 02:31:24;;;;;;;1.50;0.67;;;21.30;99.90;;;;;;5090726;28;20183;-72
2022/10/02 02:33:58;;;;;;;2.50;0.73;;;22.60;99.60;;;;;;5095941;28;20179;-70
2022/10/02 02:36:34;;;;;;;1.77;0.50;;;23.00;95.30;;;;;;5085847;28;20171;-69
2022/10/02 02:39:19;;;;;;;1.60;0.63;;;23.00;94.60;;;;;;5075384;28;20663;-70
2022/10/02 02:41:55;;;;;;;2.00;0.43;;;22.70;91.70;;;;;;5075613;28;20186;-75
2022/10/02 02:44:33;;;;;;;3.27;0.70;;;22.00;94.30;;;;;;5075388;28;20178;-71
2022/10/02 02:47:17;;;;;;;3.20;0.70;;;21.30;95.70;;;;;;5075198;28;20232;-70
2022/10/02 02:49:51;;;;;;;0.93;0.43;;;21.20;99.90;;;;;;5094958;28;20187;-69
2022/10/02 02:52:39;;;;;;;1.07;0.50;;;22.20;96.70;;;;;;5095122;28;20175;-69
2022/10/02 02:55:34;;;;;;;1.30;0.50;;;23.00;99.90;;;;;;5095305;28;20178;-70
2022/10/02 02:58:33;;;;;;;2.70;0.40;;;23.30;92.50;;;;;;5086179;28;20226;-71
2022/10/02 03:01:01;;;;;;;0.73;0.40;;;23.50;91.00;;;;;;5076979;28;20226;-70
2022/10/02 03:03:29;;;;;;;0.50;0.30;;;23.60;76.80;;;;;;5076979;28;20269;-72
2022/10/02 03:06:17;;;;;;;1.10;0.50;;;24.00;85.10;;;;;;5094838;28;20200;-71
2022/10/02 03:08:49;;;;;;;0.67;0.50;;;24.20;75.50;;;;;;5094712;28;20179;-72
2022/10/02 03:11:41;;;;;;;3.93;1.73;;;24.50;90.00;;;;;;5095574;28;20562;-71
2022/10/02 03:14:44;;;;;;;1.83;1.20;;;24.30;98.40;;;;;;5095406;28;20186;-71
2022/10/02 03:17:34;;;;;;;2.53;1.20;;;23.50;99.90;;;;;;5095230;28;20243;-70
2022/10/02 03:20:38;;;;;;;3.60;1.60;;;23.30;99.90;;;;;;5095261;28;20202;-72
2022/10/02 03:23:29;;;;;;;4.03;1.40;;;22.90;99.90;;;;;;5076706;28;20186;-71
2022/10/02 03:26:12;;;;;;;4.37;1.80;;;22.60;99.90;;;;;;5094862;28;20221;-70
2022/10/02 03:28:51;;;;;;;2.87;1.47;;;22.60;99.90;;;;;;5094957;28;20186;-71
2022/10/02 03:31:21;;;;;;;2.97;1.40;;;22.60;99.90;;;;;;5095041;28;20175;-70
2022/10/02 03:33:52;;;;;;;1.13;1.00;;;22.20;99.90;;;;;;5094929;28;20175;-69
2022/10/02 03:36:40;;;;;;;2.40;1.30;;;22.20;99.90;;;;;;5094831;28;20184;-70
2022/10/02 03:39:09;;;;;;;7.83;1.33;;;22.00;99.90;;;;;;5094605;28;20270;-70
2022/10/02 03:41:36;;;;;;;2.30;1.20;;;22.10;99.90;;;;;;5094850;28;20210;-69
2022/10/02 03:44:05;;;;;;;5.43;2.13;;;22.00;99.90;;;;;;5093896;28;20185;-69
2022/10/02 03:46:34;;;;;;;6.60;1.80;;;21.70;99.90;;;;;;5076781;28;20679;-70
2022/10/02 03:49:02;;;;;;;3.13;1.10;;;21.70;99.90;;;;;;5094685;28;20534;-71
2022/10/02 03:51:29;;;;;;;3.50;1.30;;;21.70;99.90;;;;;;5094417;28;20170;-71
2022/10/02 03:54:00;;;;;;;1.80;0.70;;;21.80;99.90;;;;;;5094488;28;20217;-70
2022/10/02 03:56:55;;;;;;;1.60;1.10;;;21.70;99.90;;;;;;5094284;28;20172;-69
2022/10/02 03:59:48;;;;;;;3.03;0.97;;;21.70;99.90;;;;;;5084839;28;20236;-69
2022/10/02 04:02:33;;;;;;;4.83;1.10;;;21.50;99.90;;;;;;5093933;28;20189;-70
2022/10/02 04:05:40;;;;;;;4.37;0.70;;;21.30;99.90;;;;;;5077132;28;20177;-73
2022/10/02 04:08:23;;;;;;;2.93;0.87;;;21.20;99.90;;;;;;5084853;28;20247;-71
2022/10/02 04:11:03;;;;;;;4.57;1.13;;;21.30;99.90;;;;;;5074209;28;20231;-71
2022/10/02 04:13:45;;;;;;;3.57;1.33;;;21.70;99.90;;;;;;5074766;28;20214;-71
2022/10/02 04:16:34;;;;;;;2.33;1.17;;;21.60;99.90;;;;;;5091834;28;20230;-71
2022/10/02 04:19:26;;;;;;;4.33;0.87;;;21.30;99.90;;;;;;5081827;28;20201;-71
2022/10/02 04:22:23;;;;;;;1.53;0.93;;;21.30;99.90;;;;;;5059172;28;20682;-71
2022/10/02 04:25:09;;;;;;;2.20;0.60;;;21.30;99.90;;;;;;5073746;28;20187;-72
2022/10/02 04:27:55;;;;;;;2.53;1.23;;;21.30;99.90;;;;;;5093673;28;20516;-71
2022/10/02 04:30:23;;;;;;;3.97;1.20;;;21.60;99.90;;;;;;5060640;28;20726;-71
2022/10/02 04:32:56;;;;;;;1.23;0.80;;;21.60;99.90;;;;;;5073270;28;20192;-71
2022/10/02 04:35:38;;;;;;;1.70;1.13;;;21.50;99.90;;;;;;5074594;28;20185;-71
2022/10/02 04:38:30;;;;;;;2.70;0.77;;;21.20;99.90;;;;;;5079294;28;20175;-71
2022/10/02 04:41:26;;;;;;;2.17;0.73;;;21.20;99.90;;;;;;5094919;28;20739;-72
2022/10/02 04:44:13;;;;;;;2.37;1.27;;;21.10;99.90;;;;;;5094342;28;20179;-71
2022/10/02 04:46:57;;;;;;;6.50;1.33;;;21.00;99.90;;;;;;5093214;28;20179;-71
2022/10/02 04:49:43;;;;;;;4.47;2.23;;;20.90;99.90;;;;;;5079008;28;20186;-71
2022/10/02 04:52:42;;;;;;;2.87;1.43;;;20.90;99.90;;;;;;5083108;28;20243;-69
2022/10/02 04:55:16;;;;;;;4.90;1.57;;;20.70;99.90;;;;;;5092983;28;20679;-70
2022/10/02 04:58:17;;;;;;;2.47;0.90;;;21.00;99.90;;;;;;5056437;28;20527;-72
2022/10/02 05:01:17;;;;;;;2.80;1.13;;;20.50;99.90;;;;;;5079998;28;20230;-72
2022/10/02 05:03:52;;;;;;;3.20;0.90;;;20.60;99.90;;;;;;5050996;28;20213;-73
2022/10/02 05:06:49;;;;;;;3.23;1.10;;;20.60;99.90;;;;;;5068505;28;20183;-71
2022/10/02 05:09:40;;;;;;;2.40;1.10;;;20.60;99.90;;;;;;5092913;28;20171;-72
2022/10/02 05:12:26;;;;;;;2.33;0.90;;;20.50;99.90;;;;;;5073191;28;20191;-71
2022/10/02 05:15:26;;;;;;;3.40;1.00;;;20.40;99.90;;;;;;5072311;28;20714;-71
2022/10/02 05:17:56;;;;;;;2.70;1.43;;;20.20;99.90;;;;;;5072304;28;20220;-72
2022/10/02 05:20:44;;;;;;;1.23;0.77;;;20.30;99.90;;;;;;5058557;28;20211;-71
2022/10/02 05:23:33;;;;;;;4.97;1.00;;;20.20;99.90;;;;;;5092529;28;20169;-71
2022/10/02 05:26:20;;;;;;;2.37;0.60;;;20.00;99.90;;;;;;5059006;28;20233;-71
2022/10/02 05:29:03;;;;;;;2.10;0.90;;;19.90;99.90;;;;;;5084885;28;20220;-71
2022/10/02 05:31:50;;;;;;;1.53;0.70;;;19.60;99.90;;;;;;5091857;28;20276;-72
2022/10/02 05:34:18;;;;;;;5.43;0.97;;;19.80;99.90;;;;;;5092453;28;20258;-71
2022/10/02 05:37:31;;;;;;;4.97;1.00;;;19.90;99.90;;;;;;5092221;28;20184;-71
2022/10/02 05:40:12;;;;;;;2.97;1.03;;;20.00;99.90;;;;;;5056992;28;20285;-72
2022/10/02 05:42:53;;;;;;;3.37;1.13;;;19.80;99.90;;;;;;5074083;28;20584;-71
2022/10/02 05:45:21;;;;;;;4.67;1.47;;;19.60;99.90;;;;;;5092044;28;20192;-71
2022/10/02 05:47:50;;;;;;;3.43;1.70;;;19.60;99.90;;;;;;5091715;28;20184;-71
2022/10/02 05:50:27;;;;;;;2.23;1.40;;;19.50;99.90;;;;;;5084592;28;20274;-72
2022/10/02 05:53:23;;;;;;;4.30;1.40;;;19.50;99.90;;;;;;5071825;28;20184;-71
2022/10/02 05:56:06;;;;;;;4.03;1.10;;;19.50;99.90;;;;;;5057603;28;20634;-71
2022/10/02 05:58:38;;;;;;;2.17;1.00;;;19.40;99.90;;;;;;5071321;28;20238;-70
2022/10/02 06:01:34;;;;;;;2.57;0.83;;;19.30;99.90;;;;;;5084896;28;20226;-72
2022/10/02 06:04:10;;;;;;;6.90;1.37;;;19.30;99.90;;;;;;5092019;28;20175;-73
2022/10/02 06:06:54;;;;;;;2.43;1.43;;;19.30;99.90;;;;;;5084991;28;20191;-73
2022/10/02 06:09:36;;;;;;;4.97;1.37;;;19.10;99.90;;;;;;5071824;28;20229;-71
2022/10/02 06:12:21;;;;;;;2.40;1.10;;;18.80;99.90;;;;;;5072890;28;20199;-73
2022/10/02 06:14:59;;;;;;;4.10;1.60;;;18.60;99.90;;;;;;5092059;28;20236;-71
2022/10/02 06:17:40;;;;;;;3.37;1.00;;;18.50;99.90;;;;;;5085893;28;20167;-71
2022/10/02 06:20:29;;;;;;;2.50;1.13;;;18.00;99.90;;;;;;5076313;28;20600;-70
2022/10/02 06:23:01;;;;;;;1.17;0.70;;;18.00;99.90;;;;;;5078935;28;20214;-72
2022/10/02 06:25:36;;;;;;;3.83;1.20;;;18.00;99.90;;;;;;5077474;28;20183;-71
2022/10/02 06:28:16;;;;;;;4.20;1.00;;;18.20;99.90;;;;;;5072757;28;20232;-70
2022/10/02 06:30:56;;;;;;;1.47;0.93;;;18.20;99.90;;;;;;5072106;28;20172;-70
2022/10/02 06:33:28;;;;;;;1.70;0.80;;;18.40;99.90;;;;;;5071596;28;20186;-71
2022/10/02 06:36:25;;;;;;;4.87;0.87;;;18.40;99.90;;;;;;5087769;28;20186;-71
2022/10/02 06:39:11;;;;;;;2.30;0.90;;;18.50;99.90;;;;;;5090427;28;20182;-71
2022/10/02 06:42:05;;;;;;;4.13;1.20;;;18.70;99.90;;;;;;5091460;28;20217;-71
2022/10/02 06:44:49;;;;;;;1.43;0.90;;;18.70;99.90;;;;;;5073396;28;20256;-72
2022/10/02 06:47:25;;;;;;;3.40;1.00;;;18.70;99.90;;;;;;5079402;28;20195;-72
2022/10/02 06:50:10;;;;;;;2.93;1.80;;;18.80;99.90;;;;;;5091652;28;20272;-73
2022/10/02 06:53:06;;;;;;;3.73;1.60;;;18.80;99.90;;;;;;5079229;28;20185;-73
2022/10/02 06:55:43;;;;;;;1.83;1.17;;;18.80;99.90;;;;;;5071291;28;20536;-72
2022/10/02 06:58:54;;;;;;;1.03;0.80;;;18.70;99.90;;;;;;5070809;28;20175;-72
2022/10/02 07:01:57;;;;;;;3.43;1.97;;;18.30;99.90;;;;;;5053186;28;20219;-72
2022/10/02 07:04:45;;;;;;;2.10;1.03;;;18.20;99.90;;;;;;5080023;28;20664;-72
2022/10/02 07:07:27;;;;;;;7.97;1.07;;;18.10;99.90;;;;;;5058499;28;20191;-72
2022/10/02 07:10:20;;;;;;;5.33;2.10;;;17.80;99.90;;;;;;5091301;28;20179;-73
2022/10/02 07:12:57;;;;;;;5.50;2.90;;;17.70;99.90;;;;;;5091356;28;20236;-73
2022/10/02 07:15:31;;;;;;;6.17;3.40;;;17.50;99.90;;;;;;5091303;28;20175;-72
2022/10/02 07:18:18;;;;;;;7.50;2.73;;;17.30;99.90;;;;;;5091142;28;20565;-71
2022/10/02 07:21:03;;;;;;;4.47;3.00;;;17.20;99.90;;;;;;5076585;28;20211;-72
2022/10/02 07:23:43;;;;;;;5.67;2.93;;;17.20;99.90;;;;;;5094716;28;20198;-71
2022/10/02 07:26:20;;;;;;;5.10;2.10;;;17.20;99.90;;;;;;5094565;28;20208;-72
2022/10/02 07:29:02;;;;;;;5.30;1.10;;;17.10;99.90;;;;;;5097429;28;20179;-69
2022/10/02 07:31:41;;;;;;;3.73;1.30;;;17.00;99.90;;;;;;5094550;28;20198;-71
2022/10/02 07:34:21;;;;;;;2.40;2.00;;;16.90;99.90;;;;;;5094355;28;20190;-72
2022/10/02 07:37:29;;;;;;;5.93;3.20;;;16.80;99.90;;;;;;5093346;28;20178;-70
2022/10/02 07:40:20;;;;;;;7.17;3.20;;;16.70;99.90;;;;;;5080341;28;20229;-70
2022/10/02 07:43:16;;;;;;;6.07;3.40;;;16.70;99.90;;;;;;5083345;28;20192;-71
2022/10/02 07:46:08;;;;;;;6.63;3.10;;;16.40;99.90;;;;;;5073988;28;20198;-71
2022/10/02 07:49:11;;;;;;;9.07;3.93;;;16.30;99.90;;;;;;5085714;28;20171;-70
2022/10/02 07:52:15;;;;;;;9.40;2.93;;;16.30;99.90;;;;;;5094274;28;20257;-72
2022/10/02 07:55:13;;;;;;;5.00;2.73;;;16.20;99.90;;;;;;5094027;28;20178;-69
2022/10/02 07:58:01;;;;;;;5.33;2.93;;;16.10;99.90;;;;;;5094189;28;20175;-70
2022/10/02 08:00:36;;;;;;;5.00;2.30;;;15.90;99.90;;;;;;5072381;28;20235;-70
2022/10/02 08:03:30;;;;;;;4.90;2.73;;;15.80;99.90;;;;;;5073993;28;20176;-71
2022/10/02 08:05:59;;;;;;;4.97;2.50;;;15.80;99.90;;;;;;5042311;28;20191;-71
2022/10/02 08:08:48;;;;;;;6.60;2.00;;;15.60;99.90;;;;;;5073948;28;20655;-71
2022/10/02 08:11:50;;;;;;;3.27;1.83;;;15.60;99.90;;;;;;5072426;28;20184;-70
2022/10/02 08:14:37;;;;;;;7.40;2.00;;;15.50;99.90;;;;;;5069618;28;20656;-72
2022/10/02 08:17:30;;;;;;;3.67;2.07;;;15.50;99.90;;;;;;5072392;28;20183;-71
2022/10/02 08:20:19;;;;;;;4.53;1.80;;;15.40;99.90;;;;;;5043229;28;20226;-72
2022/10/02 08:23:02;;;;;;;2.17;1.33;;;15.30;99.90;;;;;;5074468;28;20214;-72
2022/10/02 08:25:42;;;;;;;2.37;1.53;;;15.30;99.90;;;;;;5073611;28;20174;-72
2022/10/02 08:28:21;;;;;;;5.90;1.40;;;15.20;99.90;;;;;;5073486;28;20182;-72
2022/10/02 08:30:49;;;;;;;3.47;1.80;;;15.10;99.90;;;;;;5073217;28;20238;-72
2022/10/02 08:33:21;;;;;;;7.03;2.10;;;15.00;99.90;;;;;;5073334;28;20202;-72
2022/10/02 08:35:52;;;;;;;3.27;1.87;;;14.80;99.90;;;;;;5073280;28;20541;-71
2022/10/02 08:38:44;;;;;;;3.63;1.33;;;14.80;99.90;;;;;;5053188;28;20169;-71
2022/10/02 08:41:33;;;;;;;2.47;1.80;;;14.70;99.90;;;;;;5052939;28;20252;-70
2022/10/02 08:44:21;;;;;;;1.90;1.53;;;14.60;99.90;;;;;;5053280;28;20176;-72
2022/10/02 08:47:18;;;;;;;2.27;1.53;;;14.60;99.90;;;;;;5051464;28;20275;-72
2022/10/02 08:50:13;;;;;;;5.43;2.20;;;14.50;99.90;;;;;;5052884;28;20177;-72
2022/10/02 08:52:50;;;;;;;3.20;1.80;;;14.40;99.90;;;;;;5067677;28;20184;-70
2022/10/02 08:55:53;;;;;;;3.00;1.90;;;14.30;99.90;;;;;;5065660;28;20207;-71
2022/10/02 08:58:30;;;;;;;2.93;1.93;;;14.30;99.90;;;;;;5059497;28;20252;-70
2022/10/02 09:01:21;;;;;;;3.80;2.00;;;14.20;99.90;;;;;;5092946;28;20223;-71
2022/10/02 09:04:04;;;;;;;5.93;2.50;;;14.10;99.90;;;;;;5074688;28;20234;-71
2022/10/02 09:06:59;;;;;;;6.03;2.43;;;14.10;99.90;;;;;;5078153;28;20194;-70
2022/10/02 09:09:50;;;;;;;5.80;2.53;;;14.00;99.90;;;;;;5072662;28;20229;-70
2022/10/02 09:13:05;;;;;;;4.47;2.87;;;14.00;99.90;;;;;;5072519;28;20206;-70
2022/10/02 09:15:33;;;;;;;6.27;3.13;;;13.90;99.90;;;;;;4978639;28;20228;-70
2022/10/02 09:18:14;;;;;;;5.10;3.00;;;13.70;99.90;;;;;;4990830;28;20182;-71
2022/10/02 09:20:57;;;;;;;5.37;3.20;;;13.60;99.90;;;;;;5039344;28;20280;-70
2022/10/02 09:24:12;;;;;;;6.40;3.60;;;13.60;99.90;;;;;;5072551;28;20179;-70
2022/10/02 09:26:57;;;;;;;6.83;3.33;;;13.60;99.90;;;;;;5082197;28;20674;-70
2022/10/02 09:29:56;;;;;;;8.53;3.70;;;13.50;99.90;;;;;;5092833;28;20182;-70
2022/10/02 09:32:35;;;;;;;8.00;4.10;;;13.40;99.90;;;;;;5093931;28;20202;-71
2022/10/02 09:35:32;;;;;;;6.10;3.77;;;13.30;99.90;;;;;;5074158;28;20190;-71
2022/10/02 09:38:28;;;;;;;8.33;4.23;;;13.30;99.90;;;;;;5090606;28;20194;-72
2022/10/02 09:41:25;;;;;;;11.70;4.23;;;13.20;99.90;;;;;;5093061;28;20691;-71
2022/10/02 09:44:18;;;;;;;6.33;4.10;;;13.10;99.90;;;;;;5093540;28;20194;-71
2022/10/02 09:47:21;;;;;;;8.57;3.53;;;13.10;99.90;;;;;;5086797;28;20189;-71
2022/10/02 09:50:09;;;;;;;7.83;4.03;;;13.00;99.90;;;;;;5075559;28;20190;-71
2022/10/02 09:53:01;;;;;;;7.80;4.00;;;13.00;99.90;;;;;;5093629;28;20248;-71
2022/10/02 09:55:50;;;;;;;12.27;4.13;;;12.90;99.90;;;;;;5094103;28;20200;-69
2022/10/02 09:59:06;;;;;;;10.57;4.93;;;12.80;99.90;;;;;;5073619;28;20187;-71
2022/10/02 10:01:51;;;;;;;8.27;3.83;;;12.80;99.90;;;;;;5073481;28;20225;-71
2022/10/02 10:04:37;;;;;;;7.23;3.70;;;12.70;99.90;;;;;;5073023;28;20257;-70
2022/10/02 10:07:23;;;;;;;6.30;3.87;;;12.80;99.90;;;;;;5083050;28;20283;-70
2022/10/02 10:10:11;;;;;;;5.43;3.83;;;12.80;99.90;;;;;;5093169;28;20190;-70
2022/10/02 10:13:14;;;;;;;8.33;4.07;;;12.70;99.90;;;;;;5093517;28;20171;-70
2022/10/02 10:16:17;;;;;;;9.33;3.90;;;12.70;99.90;;;;;;5091705;28;20637;-70
2022/10/02 10:18:46;;;;;;;7.70;3.80;;;12.70;99.90;;;;;;5089648;28;20565;-70
2022/10/02 10:21:46;;;;;;;6.20;3.90;;;12.70;99.90;;;;;;5093731;28;20209;-70
2022/10/02 10:24:16;;;;;;;9.60;3.90;;;12.70;99.90;;;;;;5093106;28;20178;-70
2022/10/02 10:27:03;;;;;;;8.77;3.83;;;12.70;99.90;;;;;;5077716;28;20201;-69
2022/10/02 10:29:31;;;;;;;7.23;3.50;;;12.80;99.90;;;;;;5072992;28;20178;-70
2022/10/02 10:32:24;;;;;;;7.47;3.67;;;12.80;99.90;;;;;;5073220;28;20655;-70
2022/10/02 10:35:08;;;;;;;7.67;3.63;;;12.80;99.90;;;;;;5072849;28;20183;-71
2022/10/02 10:41:20;;;;;;;8.47;3.97;;;12.80;99.90;;;;;;5073037;28;20217;-71
2022/10/02 10:44:16;;;;;;;6.13;3.77;;;12.70;99.90;;;;;;5076959;28;20181;-70
2022/10/02 10:46:46;;;;;;;5.43;3.87;;;12.60;99.90;;;;;;5079508;28;20237;-71
2022/10/02 10:49:53;;;;;;;6.70;3.50;;;12.50;99.90;;;;;;5074088;28;20599;-71
2022/10/02 10:52:53;;;;;;;7.47;3.60;;;12.50;99.90;;;;;;5072489;28;20265;-71
2022/10/02 10:55:45;;;;;;;5.80;3.80;;;12.40;99.90;;;;;;5076473;28;20187;-70
2022/10/02 10:58:36;;;;;;;6.93;3.43;;;12.40;99.90;;;;;;5076383;28;20178;-70
2022/10/02 11:01:37;;;;;;;7.83;3.50;;;12.30;99.90;;;;;;5076427;28;20229;-69
2022/10/02 11:04:23;;;;;;;6.33;3.23;;;12.20;99.90;;;;;;5077534;28;20221;-69
2022/10/02 11:07:21;;;;;;;5.03;3.10;;;12.10;99.90;;;;;;5088966;28;20654;-70
2022/10/02 11:10:06;;;;;;;5.40;3.37;;;12.10;99.90;;;;;;5097050;28;20265;-71
2022/10/02 11:12:40;;;;;;;7.20;3.70;;;12.10;99.90;;;;;;5096356;28;20178;-71
2022/10/02 11:15:26;;;;;;;10.33;3.50;;;12.10;99.90;;;;;;5076967;28;20528;-71
2022/10/02 11:18:13;;;;;;;6.70;3.73;;;12.10;99.90;;;;;;5076121;28;20198;-70
2022/10/02 11:20:50;;;;;;;6.03;4.20;;;12.20;99.90;;;;;;5058017;28;20217;-71
2022/10/02 11:23:29;;;;;;;6.93;4.90;;;12.20;99.90;;;;;;5079076;28;20277;-69
2022/10/02 11:26:24;;;;;;;10.47;5.53;;;12.30;99.90;;;;;;5077706;28;20193;-70
2022/10/02 11:29:09;;;;;;;8.70;5.03;;;12.30;99.90;;;;;;5096326;28;20177;-70
2022/10/02 11:32:27;;;;;;;7.17;5.00;;;12.40;99.90;;;;;;5078226;28;20178;-70
2022/10/02 11:35:30;;;;;;;10.07;5.40;;;12.30;99.90;;;;;;5030775;28;20202;-70
2022/10/02 11:38:14;;;;;;;7.07;4.57;;;12.20;99.90;;;;;;5075844;28;20280;-70
2022/10/02 11:40:45;;;;;;;8.43;6.00;;;12.20;99.90;;;;;;5075996;28;20221;-70
2022/10/02 11:43:23;;;;;;;13.27;6.60;;;12.20;99.90;;;;;;5077268;28;20265;-70
2022/10/02 11:46:13;;;;;;;13.10;6.80;;;12.20;99.90;;;;;;5095833;28;20545;-70
2022/10/02 11:48:42;;;;;;;10.70;6.63;;;12.30;99.90;;;;;;5096601;28;20178;-70
2022/10/02 11:51:28;;;;;;;11.13;5.97;;;12.20;99.90;;;;;;5095836;28;20631;-70
2022/10/02 11:54:02;;;;;;;10.53;6.10;;;12.20;99.90;;;;;;5088222;28;20186;-71
2022/10/02 11:56:52;;;;;;;9.13;6.53;;;12.10;99.90;;;;;;5075390;28;20624;-70
2022/10/02 11:59:54;;;;;;;12.67;6.53;;;12.10;99.90;;;;;;5075157;28;20379;-70
2022/10/02 12:02:38;;;;;;;9.73;6.27;;;12.10;99.90;;;;;;5075263;28;20185;-71
2022/10/02 12:05:54;;;;;;;10.73;6.07;;;12.10;99.90;;;;;;5075372;28;20211;-70
2022/10/02 12:08:45;;;;;;;12.73;7.13;;;12.10;99.90;;;;;;5077968;28;20266;-71
2022/10/02 12:11:34;;;;;;;9.67;6.20;;;12.10;99.90;;;;;;5095221;28;20190;-71
2022/10/02 12:14:13;;;;;;;9.70;6.57;;;12.10;99.90;;;;;;5081127;28;20264;-70
2022/10/02 12:17:21;;;;;;;11.77;6.93;;;12.10;99.90;;;;;;5074974;28;20180;-71
2022/10/02 12:29:26;;;;;;;12.30;7.07;;;11.90;99.90;;;;;;5095040;28;20200;-70
2022/10/02 12:32:16;;;;;;;9.57;6.33;;;11.80;99.90;;;;;;5095267;28;20189;-71
2022/10/02 12:35:20;;;;;;;13.17;7.10;;;11.80;99.90;;;;;;5074987;28;20207;-71
2022/10/02 12:37:57;;;;;;;12.20;6.57;;;11.70;99.90;;;;;;5075067;28;20186;-71
2022/10/02 12:40:37;;;;;;;11.83;7.20;;;11.70;99.90;;;;;;5074572;28;20208;-71
2022/10/02 12:43:27;;;;;;;10.67;6.70;;;11.60;99.90;;;;;;5079361;28;20280;-70
2022/10/02 12:46:12;;;;;;;10.83;6.47;;;11.50;99.90;;;;;;5081721;28;20197;-70
2022/10/02 12:49:04;;;;;;;9.80;6.40;;;11.50;99.90;;;;;;5094927;28;20256;-70
2022/10/02 12:51:41;;;;;;;16.00;7.40;;;11.50;99.90;;;;;;5094938;28;20654;-71
2022/10/02 12:54:37;;;;;;;12.10;7.97;;;11.40;99.90;;;;;;5062896;28;20184;-71
2022/10/02 12:57:56;;;;;;;14.90;8.10;;;11.40;99.90;;;;;;5074311;28;20183;-70
2022/10/02 13:00:43;;;;;;;13.33;8.23;;;11.30;99.90;;;;;;5073985;28;20225;-71
2022/10/02 13:03:25;;;;;;;13.63;7.97;;;11.20;99.90;;;;;;5075464;28;20263;-71
2022/10/02 13:06:09;;;;;;;17.27;8.57;;;11.20;99.90;;;;;;5074237;28;20658;-71
2022/10/02 13:08:41;;;;;;;15.40;8.33;;;11.20;99.90;;;;;;5074187;28;20235;-69
2022/10/02 13:11:19;;;;;;;11.10;7.47;;;11.20;99.90;;;;;;5094178;28;20637;-69
2022/10/02 13:14:04;;;;;;;13.03;7.60;;;11.20;99.90;;;;;;5080902;28;20267;-69
2022/10/02 13:17:04;;;;;;;11.57;7.37;;;11.30;99.90;;;;;;5072948;28;20543;-70
2022/10/02 13:19:53;;;;;;;13.37;8.17;;;11.40;99.90;;;;;;5073872;28;20189;-70
2022/10/02 13:22:57;;;;;;;12.20;7.47;;;11.50;99.90;;;;;;5075171;28;20176;-70
2022/10/02 13:25:33;;;;;;;13.40;7.73;;;11.50;99.90;;;;;;5069424;28;20183;-70
2022/10/02 13:28:13;;;;;;;13.00;8.47;;;11.50;99.90;;;;;;5094703;28;20169;-70
2022/10/02 13:31:34;;;;;;;13.77;7.60;;;11.50;99.90;;;;;;5094136;28;20203;-71
2022/10/02 13:34:22;;;;;;;12.80;7.10;;;11.40;99.90;;;;;;4991325;28;20712;-71
2022/10/02 13:37:11;;;;;;;11.77;7.30;;;11.40;99.90;;;;;;5062321;28;20184;-70
2022/10/02 13:39:59;;;;;;;8.40;6.27;;;11.40;99.90;;;;;;5093421;28;20216;-71
2022/10/02 13:43:13;;;;;;;13.23;7.67;;;11.40;99.90;;;;;;5090786;28;20649;-71
2022/10/02 13:46:05;;;;;;;11.13;6.60;;;11.40;99.90;;;;;;5073542;28;20177;-70
2022/10/02 13:48:41;;;;;;;13.23;7.10;;;11.40;99.90;;;;;;5073880;28;20248;-70
2022/10/02 13:51:16;;;;;;;11.30;6.23;;;11.40;99.90;;;;;;5073602;28;20174;-71
2022/10/02 13:53:49;;;;;;;12.23;7.07;;;11.40;99.90;;;;;;5086328;28;20209;-71
2022/10/02 13:56:42;;;;;;;15.20;7.37;;;11.40;99.90;;;;;;5094076;28;20177;-71
2022/10/02 13:59:36;;;;;;;11.97;7.50;;;11.30;99.90;;;;;;5075093;28;20320;-71
2022/10/02 14:02:06;;;;;;;10.03;6.60;;;11.30;99.90;;;;;;5076473;28;20230;-71
2022/10/02 14:04:57;;;;;;;10.10;7.03;;;11.40;99.90;;;;;;5093296;28;20237;-71
2022/10/02 14:07:57;;;;;;;13.57;7.20;;;11.40;99.90;;;;;;5093629;28;20222;-70
2022/10/02 14:10:40;;;;;;;10.80;6.30;;;11.50;99.90;;;;;;5093129;28;20685;-70
2022/10/02 14:13:14;;;;;;;9.07;6.43;;;11.60;99.90;;;;;;5085113;28;20646;-70
2022/10/02 14:16:01;;;;;;;9.77;5.47;;;11.70;99.90;;;;;;5073247;28;20266;-71
2022/10/02 14:18:36;;;;;;;7.70;4.90;;;11.70;99.90;;;;;;5073075;28;20173;-71
2022/10/02 14:21:11;;;;;;;10.37;6.57;;;11.80;99.90;;;;;;5072921;28;20211;-71
2022/10/02 14:24:03;;;;;;;8.60;5.53;;;11.80;99.90;;;;;;5074055;28;20542;-71
2022/10/02 14:26:57;;;;;;;10.73;5.43;;;11.80;99.90;;;;;;5073268;28;20260;-71
2022/10/02 14:30:06;;;;;;;7.40;4.97;;;11.80;99.90;;;;;;5087997;28;20186;-71
2022/10/02 14:32:43;;;;;;;6.37;4.27;;;11.90;99.90;;;;;;5053879;28;20197;-71